Time;durP1;ratioP1;P1;durP2;ratioP2;P2;SDS_P1;SDS_P2;PMS_P1;PMS_P2;Temp;Humidity;BMP_temperature;BMP_pressure;BME280_temperature;BME280_humidity;BME280_pressure;Samples;Min_cycle;Max_cycle;Signal;HPM_P1;HPM_P2
2023/08/16 00:02:25;;;;;;;3.58;1.63;;;;;;;24.61;50.63;102095.25;5029363;28;20056;-33
2023/08/16 00:04:52;;;;;;;1.83;1.30;;;;;;;24.60;50.28;102085.38;5030989;28;20049;-33
2023/08/16 00:07:18;;;;;;;1.38;1.15;;;;;;;24.58;50.34;102091.00;5032089;28;20137;-33
2023/08/16 00:09:45;;;;;;;2.53;1.40;;;;;;;24.58;50.53;102084.72;5032426;28;20050;-33
2023/08/16 00:12:11;;;;;;;2.13;1.30;;;;;;;24.56;50.39;102089.44;5035202;28;20045;-33
2023/08/16 00:14:38;;;;;;;2.28;1.38;;;;;;;24.56;50.26;102084.91;5029792;28;20054;-33
2023/08/16 00:17:05;;;;;;;2.22;1.33;;;;;;;24.55;50.51;102080.47;5032656;28;20077;-33
2023/08/16 00:19:31;;;;;;;3.00;1.85;;;;;;;24.53;50.87;102089.81;5030686;28;20049;-33
2023/08/16 00:21:58;;;;;;;2.47;1.20;;;;;;;24.54;50.36;102084.19;5027722;28;20135;-33
2023/08/16 00:24:24;;;;;;;2.53;1.30;;;;;;;24.53;50.65;102074.38;5032065;28;20640;-33
2023/08/16 00:26:51;;;;;;;2.13;1.23;;;;;;;24.52;50.56;102079.94;5030815;28;20119;-33
2023/08/16 00:29:17;;;;;;;1.80;1.30;;;;;;;24.51;51.07;102079.09;5031227;28;20384;-33
2023/08/16 00:31:44;;;;;;;1.67;1.20;;;;;;;24.51;50.87;102073.69;5031550;28;20068;-33
2023/08/16 00:34:10;;;;;;;2.55;1.40;;;;;;;24.50;50.83;102069.28;5028097;28;20405;-33
2023/08/16 00:36:37;;;;;;;2.50;1.02;;;;;;;24.49;50.90;102078.44;5027343;28;20115;-33
2023/08/16 00:39:04;;;;;;;2.70;1.50;;;;;;;24.49;51.18;102085.72;5032844;28;20384;-33
2023/08/16 00:41:30;;;;;;;1.65;1.17;;;;;;;24.47;51.26;102077.75;5033406;28;20103;-33
2023/08/16 00:43:57;;;;;;;1.80;1.02;;;;;;;24.47;50.84;102093.16;5031913;28;20045;-33
2023/08/16 00:46:24;;;;;;;2.75;1.25;;;;;;;24.46;50.80;102091.47;5030851;28;20107;-33
2023/08/16 00:48:51;;;;;;;1.63;1.15;;;;;;;24.45;50.90;102095.22;5031147;28;20455;-33
2023/08/16 00:51:17;;;;;;;2.15;1.20;;;;;;;24.45;50.58;102095.22;5031005;28;20669;-33
2023/08/16 00:53:45;;;;;;;1.45;1.15;;;;;;;24.44;50.88;102101.63;5029924;28;20125;-33
2023/08/16 00:56:16;;;;;;;1.73;1.15;;;;;;;24.43;51.22;102098.06;5027732;28;20394;-33
2023/08/16 00:58:43;;;;;;;2.28;1.10;;;;;;;24.42;50.91;102107.22;5031274;28;20389;-33
2023/08/16 01:01:10;;;;;;;2.63;1.35;;;;;;;24.42;50.90;102103.66;5030812;28;20050;-33
2023/08/16 01:03:37;;;;;;;1.75;1.20;;;;;;;24.40;51.11;102098.38;5032804;28;20080;-33
2023/08/16 01:06:04;;;;;;;1.83;1.20;;;;;;;24.41;51.16;102097.41;5031266;28;20511;-33
2023/08/16 01:08:32;;;;;;;1.90;1.00;;;;;;;24.40;51.20;102098.38;5032775;28;20073;-33
2023/08/16 01:11:23;;;;;;;2.40;1.10;;;;;;;24.38;51.23;102101.28;5033903;28;20091;-33
2023/08/16 01:13:59;;;;;;;2.00;1.25;;;;;;;24.38;51.37;102100.44;5025630;28;20453;-33
2023/08/16 01:16:28;;;;;;;2.35;1.60;;;;;;;24.38;50.94;102103.13;5031855;28;20060;-33
2023/08/16 01:18:57;;;;;;;1.55;1.27;;;;;;;24.37;50.83;102101.41;5032069;28;20402;-33
2023/08/16 01:21:25;;;;;;;1.95;1.10;;;;;;;24.37;50.63;102109.56;5030115;28;20103;-33
2023/08/16 01:24:22;;;;;;;1.20;0.85;;;;;;;24.34;51.19;102110.72;5031114;28;20052;-33
2023/08/16 01:26:50;;;;;;;1.73;1.35;;;;;;;24.35;51.31;102112.41;5031274;28;20433;-33
2023/08/16 01:29:18;;;;;;;1.73;1.40;;;;;;;24.35;51.01;102114.28;5033354;28;20404;-33
2023/08/16 01:31:45;;;;;;;2.58;1.20;;;;;;;24.35;50.97;102111.56;5031225;28;20050;-33
2023/08/16 01:34:12;;;;;;;1.67;1.00;;;;;;;24.33;51.18;102113.59;5027751;28;20057;-33
2023/08/16 01:36:38;;;;;;;1.73;1.23;;;;;;;24.32;51.02;102107.34;5025411;28;20058;-33
2023/08/16 01:39:05;;;;;;;2.75;1.30;;;;;;;24.32;50.72;102118.19;5028951;28;20049;-33
2023/08/16 01:41:48;;;;;;;1.63;1.23;;;;;;;24.31;51.42;102121.88;5027546;28;20505;-33
2023/08/16 01:44:17;;;;;;;2.38;1.27;;;;;;;24.31;50.74;102124.59;5029444;28;20441;-33
2023/08/16 01:46:46;;;;;;;1.77;1.23;;;;;;;24.33;51.35;102135.28;5026098;28;20046;-33
2023/08/16 01:49:13;;;;;;;1.80;1.38;;;;;;;24.31;51.57;102130.00;5027905;28;20156;-33
2023/08/16 01:51:40;;;;;;;1.00;0.85;;;;;;;24.30;50.82;102124.75;5022979;28;20535;-33
2023/08/16 01:54:06;;;;;;;1.95;1.10;;;;;;;24.31;51.50;102131.88;5029152;28;20049;-33
2023/08/16 01:56:33;;;;;;;1.50;1.10;;;;;;;24.29;51.42;102133.91;4989245;28;1125040;-33
2023/08/16 01:59:00;;;;;;;2.00;1.25;;;;;;;24.29;50.89;102131.22;5026257;28;20093;-33
2023/08/16 02:01:26;;;;;;;0.95;0.85;;;;;;;24.29;51.11;102142.03;5027898;28;20049;-33
2023/08/16 02:03:53;;;;;;;2.22;1.38;;;;;;;24.29;50.88;102133.91;5029010;28;20064;-33
2023/08/16 02:06:22;;;;;;;1.13;0.98;;;;;;;24.27;51.40;102144.06;5026858;28;20140;-33
2023/08/16 02:08:49;;;;;;;2.10;1.20;;;;;;;24.26;50.99;102140.50;5027142;28;20049;-33
2023/08/16 02:11:16;;;;;;;2.70;1.58;;;;;;;24.26;51.03;102139.66;5027572;28;20396;-33
2023/08/16 02:13:42;;;;;;;1.17;0.88;;;;;;;24.25;51.20;102135.25;5030568;28;20143;-33
2023/08/16 02:16:09;;;;;;;2.13;1.00;;;;;;;24.24;51.25;102131.69;5029278;28;20144;-33
2023/08/16 02:18:36;;;;;;;1.02;0.90;;;;;;;24.24;50.92;102133.53;5029179;28;20049;-33
2023/08/16 02:21:03;;;;;;;1.70;1.00;;;;;;;24.24;50.85;102141.66;5027723;28;20144;-33
2023/08/16 02:23:30;;;;;;;1.30;1.00;;;;;;;24.23;51.41;102142.69;5030351;28;20048;-33
2023/08/16 02:25:56;;;;;;;1.00;0.80;;;;;;;24.22;51.70;102143.69;5027420;28;20348;-33
2023/08/16 02:28:23;;;;;;;1.45;1.02;;;;;;;24.21;51.25;102147.44;5024942;28;20049;-33
2023/08/16 02:30:49;;;;;;;1.40;0.80;;;;;;;24.21;50.98;102140.16;5028950;28;20375;-33
2023/08/16 02:33:16;;;;;;;1.48;0.90;;;;;;;24.21;51.60;102144.72;5030856;28;20064;-33
2023/08/16 02:35:42;;;;;;;1.95;1.30;;;;;;;24.21;51.05;102142.00;5029450;28;20056;-33
2023/08/16 02:38:09;;;;;;;1.30;0.93;;;;;;;24.19;51.51;102147.56;5029038;28;20107;-33
2023/08/16 02:40:36;;;;;;;0.90;0.85;;;;;;;24.19;51.04;102139.44;5029708;28;20717;-33
2023/08/16 02:43:03;;;;;;;1.25;0.90;;;;;;;24.18;51.63;102140.47;5029477;28;20049;-33
2023/08/16 02:45:30;;;;;;;1.73;1.10;;;;;;;24.18;51.17;102137.75;5030506;28;20418;-33
2023/08/16 02:47:57;;;;;;;0.90;0.82;;;;;;;24.17;51.42;102138.78;5029082;28;20054;-33
2023/08/16 02:50:24;;;;;;;1.88;1.25;;;;;;;24.17;51.25;102138.78;5027356;28;20069;-33
2023/08/16 02:52:50;;;;;;;1.80;1.20;;;;;;;24.17;51.63;102143.34;5025779;28;20053;-33
2023/08/16 02:55:17;;;;;;;2.40;1.15;;;;;;;24.16;51.16;102142.47;5026737;28;20049;-33
2023/08/16 02:57:43;;;;;;;1.73;1.00;;;;;;;24.16;51.07;102144.34;5029874;28;20049;-33
2023/08/16 03:00:11;;;;;;;3.33;1.45;;;;;;;24.16;51.32;102136.22;5027931;28;20159;-33
2023/08/16 03:02:37;;;;;;;1.98;1.10;;;;;;;24.13;51.75;102138.25;5027965;28;20128;-33
2023/08/16 03:05:04;;;;;;;1.50;0.93;;;;;;;24.13;51.59;102127.41;5032554;28;20144;-33
2023/08/16 03:07:31;;;;;;;1.20;0.80;;;;;;;24.13;51.85;102129.28;5031253;28;20133;-33
2023/08/16 03:09:57;;;;;;;2.58;1.10;;;;;;;24.14;51.64;102129.09;5030887;28;20425;-33
2023/08/16 03:12:24;;;;;;;1.08;0.90;;;;;;;24.12;51.26;102127.56;5032439;28;20049;-33
2023/08/16 03:14:50;;;;;;;1.00;0.80;;;;;;;24.12;51.74;102127.56;5032091;28;20323;-33
2023/08/16 03:17:17;;;;;;;1.90;1.33;;;;;;;24.11;51.28;102136.69;5030270;28;20119;-33
2023/08/16 03:19:44;;;;;;;1.27;0.80;;;;;;;24.11;51.19;102136.69;5031540;28;20049;-33
2023/08/16 03:22:10;;;;;;;1.20;0.90;;;;;;;24.10;51.41;102130.44;5030295;28;20099;-33
2023/08/16 03:24:37;;;;;;;1.30;0.80;;;;;;;24.10;51.06;102135.84;5032081;28;20045;-33
2023/08/16 03:27:03;;;;;;;1.48;0.88;;;;;;;24.09;51.45;102139.59;5030698;28;20076;-33
2023/08/16 03:29:30;;;;;;;1.45;1.02;;;;;;;24.09;51.43;102144.16;5031416;28;20125;-33
2023/08/16 03:31:56;;;;;;;1.60;1.17;;;;;;;24.08;51.59;102140.59;5030364;28;20143;-33
2023/08/16 03:34:24;;;;;;;1.40;0.90;;;;;;;24.07;51.27;102147.00;5028597;28;20099;-33
2023/08/16 03:36:50;;;;;;;1.38;1.02;;;;;;;24.07;51.84;102149.72;5027029;28;20441;-33
2023/08/16 03:39:17;;;;;;;1.20;0.98;;;;;;;24.06;51.50;102153.44;5027687;28;20556;-34
2023/08/16 03:41:43;;;;;;;1.35;0.82;;;;;;;24.05;51.22;102154.47;5025283;28;20636;-33
2023/08/16 03:44:10;;;;;;;2.67;0.80;;;;;;;24.06;51.74;102149.88;5027325;28;20400;-33
2023/08/16 03:46:37;;;;;;;1.83;0.90;;;;;;;24.05;51.64;102159.88;5026271;28;20107;-33
2023/08/16 03:49:03;;;;;;;1.50;0.90;;;;;;;24.04;51.23;102155.47;5022594;28;20053;-33
2023/08/16 03:51:31;;;;;;;1.13;1.00;;;;;;;24.03;51.78;102161.88;5023998;28;20063;-33
2023/08/16 03:53:58;;;;;;;1.38;0.75;;;;;;;24.03;51.25;102164.59;5028475;28;20054;-33
2023/08/16 03:56:25;;;;;;;0.98;0.73;;;;;;;24.02;51.40;102168.31;5025508;28;20344;-33
2023/08/16 03:58:51;;;;;;;1.67;0.88;;;;;;;24.02;51.82;102176.44;5023848;28;20083;-33
2023/08/16 04:01:18;;;;;;;1.23;0.80;;;;;;;24.00;51.70;102173.06;5026860;28;20053;-33
2023/08/16 04:03:46;;;;;;;1.10;0.80;;;;;;;24.00;51.98;102173.06;5025130;28;20049;-33
2023/08/16 04:06:12;;;;;;;1.55;0.80;;;;;;;24.00;51.24;102170.34;5023110;28;20072;-33
2023/08/16 04:08:39;;;;;;;1.40;0.93;;;;;;;24.00;51.48;102175.78;5023091;28;20133;-33
2023/08/16 04:11:06;;;;;;;1.15;0.90;;;;;;;23.99;51.60;102175.91;5026820;28;20204;-33
2023/08/16 04:13:34;;;;;;;2.72;1.67;;;;;;;23.98;51.84;102174.22;5030016;28;20049;-33
2023/08/16 04:16:00;;;;;;;3.22;1.83;;;;;;;23.97;51.23;102173.38;5025870;28;20076;-33
2023/08/16 04:18:28;;;;;;;3.50;1.77;;;;;;;23.97;51.69;102170.69;5029347;28;20114;-33
2023/08/16 04:20:56;;;;;;;4.68;2.60;;;;;;;23.97;51.39;102167.97;5026950;28;20050;-33
2023/08/16 04:23:23;;;;;;;3.63;2.45;;;;;;;23.96;51.41;102171.69;5032324;28;20095;-33
2023/08/16 04:25:50;;;;;;;3.40;2.25;;;;;;;23.96;51.50;102168.97;5028772;28;20099;-34
2023/08/16 04:28:17;;;;;;;4.20;2.75;;;;;;;23.95;51.42;102167.25;5030921;28;20057;-33
2023/08/16 04:30:43;;;;;;;3.60;2.20;;;;;;;23.94;51.18;102173.69;5033024;28;20053;-33
2023/08/16 04:33:10;;;;;;;3.22;1.90;;;;;;;23.94;51.46;102162.88;5032933;28;20107;-33
2023/08/16 04:35:37;;;;;;;3.60;2.13;;;;;;;23.94;51.67;102165.56;5031188;28;20061;-33
2023/08/16 04:38:03;;;;;;;5.15;2.20;;;;;;;23.94;51.46;102168.28;5033785;28;20111;-33
2023/08/16 04:40:30;;;;;;;3.33;1.98;;;;;;;23.94;51.31;102172.84;5035188;28;20445;-33
2023/08/16 04:42:56;;;;;;;4.35;2.28;;;;;;;23.93;51.33;102177.41;5036056;28;20584;-33
2023/08/16 04:45:23;;;;;;;3.28;2.33;;;;;;;23.93;51.19;102174.72;5029001;28;20164;-34
2023/08/16 04:47:49;;;;;;;2.92;1.73;;;;;;;23.92;51.47;102175.72;5029005;28;20122;-33
2023/08/16 04:50:16;;;;;;;3.22;2.13;;;;;;;23.94;51.75;102178.28;5030932;28;20060;-33
2023/08/16 04:52:43;;;;;;;3.40;1.83;;;;;;;23.92;51.54;102183.84;5030160;28;20047;-33
2023/08/16 04:55:09;;;;;;;3.58;2.10;;;;;;;23.93;50.92;102185.53;5030935;28;20067;-33
2023/08/16 04:57:36;;;;;;;3.30;1.80;;;;;;;23.93;51.54;102174.72;5032429;28;20105;-34
2023/08/16 05:00:08;;;;;;;3.15;1.98;;;;;;;23.96;51.46;102181.66;5027362;28;20507;-33
2023/08/16 05:02:35;;;;;;;3.63;1.80;;;;;;;23.96;51.66;102174.41;5029759;28;20060;-33
2023/08/16 05:05:01;;;;;;;3.35;2.20;;;;;;;23.97;51.43;102178.81;5033459;28;20068;-33
2023/08/16 05:07:28;;;;;;;2.45;1.98;;;;;;;23.98;51.10;102180.50;5032275;28;20133;-34
2023/08/16 05:09:55;;;;;;;3.05;1.98;;;;;;;24.01;51.32;102190.16;5030895;28;20054;-33
2023/08/16 05:12:21;;;;;;;3.00;1.80;;;;;;;24.01;51.06;102192.88;5032333;28;20107;-33
2023/08/16 05:14:48;;;;;;;2.72;1.67;;;;;;;24.01;51.33;102191.00;5031633;28;20099;-33
2023/08/16 05:17:15;;;;;;;3.58;2.05;;;;;;;24.02;51.57;102197.28;5030493;28;20132;-33
2023/08/16 05:19:42;;;;;;;3.33;1.92;;;;;;;24.01;51.55;102196.44;5032837;28;20054;-33
2023/08/16 05:22:08;;;;;;;3.03;2.08;;;;;;;24.02;51.43;102195.41;5031445;28;20515;-33
2023/08/16 05:24:35;;;;;;;2.95;1.92;;;;;;;24.03;51.40;102188.13;5033753;28;20380;-33
2023/08/16 05:27:02;;;;;;;3.45;2.00;;;;;;;24.03;50.92;102196.25;5032024;28;20572;-33
2023/08/16 05:29:28;;;;;;;4.45;1.90;;;;;;;24.04;51.01;102195.25;5030334;28;20045;-33
2023/08/16 05:31:57;;;;;;;2.70;1.83;;;;;;;24.05;51.10;102188.84;5031810;28;20057;-33
2023/08/16 05:34:23;;;;;;;2.53;1.52;;;;;;;24.06;50.99;102196.78;5033257;28;20460;-34
2023/08/16 05:36:50;;;;;;;2.85;1.40;;;;;;;24.06;51.43;102188.66;5031222;28;20423;-33
2023/08/16 05:39:17;;;;;;;3.00;1.77;;;;;;;24.07;51.57;102184.94;5029473;28;20053;-34
2023/08/16 05:41:44;;;;;;;2.33;1.45;;;;;;;24.08;51.08;102192.06;5032634;28;20055;-34
2023/08/16 05:44:10;;;;;;;4.72;1.70;;;;;;;24.10;51.50;102194.59;5029690;28;20049;-33
2023/08/16 05:46:37;;;;;;;1.83;1.58;;;;;;;24.12;51.13;102198.00;5029278;28;20053;-34
2023/08/16 05:49:05;;;;;;;2.25;1.60;;;;;;;24.12;51.09;102192.56;5032456;28;20133;-33
2023/08/16 05:51:33;;;;;;;2.58;1.73;;;;;;;24.14;51.16;102195.97;5031523;28;20060;-34
2023/08/16 05:54:01;;;;;;;2.47;1.85;;;;;;;24.14;50.73;102195.97;5030471;28;20409;-33
2023/08/16 05:56:28;;;;;;;2.70;1.42;;;;;;;24.14;51.41;102199.53;5027648;28;20050;-33
2023/08/16 05:58:55;;;;;;;2.33;1.70;;;;;;;24.17;51.18;102200.25;5027886;28;20041;-33
2023/08/16 06:01:22;;;;;;;2.15;1.48;;;;;;;24.17;51.04;102202.94;5031895;28;20096;-33
2023/08/16 06:03:48;;;;;;;3.50;1.60;;;;;;;24.19;51.06;102203.63;5030579;28;20057;-33
2023/08/16 06:06:15;;;;;;;2.30;1.65;;;;;;;24.19;50.70;102207.19;5028992;28;20053;-34
2023/08/16 06:08:42;;;;;;;2.60;1.70;;;;;;;24.20;50.83;102214.31;5030769;28;20045;-33
2023/08/16 06:11:08;;;;;;;2.25;1.60;;;;;;;24.21;50.51;102223.28;5030889;28;20099;-34
2023/08/16 06:13:35;;;;;;;2.45;1.85;;;;;;;24.21;50.59;102218.72;5030825;28;20089;-34
2023/08/16 06:16:02;;;;;;;2.13;1.58;;;;;;;24.21;50.97;102224.13;5031550;28;20053;-34
2023/08/16 06:18:28;;;;;;;2.88;1.83;;;;;;;24.23;51.34;102222.09;5028239;28;20077;-33
2023/08/16 06:20:55;;;;;;;1.65;1.20;;;;;;;24.23;51.34;102216.69;5030233;28;20053;-34
2023/08/16 06:23:21;;;;;;;3.22;1.83;;;;;;;24.24;50.91;102220.22;5031803;28;20087;-33
2023/08/16 06:25:48;;;;;;;3.20;1.52;;;;;;;24.26;50.88;102221.78;5031980;28;20081;-33
2023/08/16 06:28:14;;;;;;;2.42;1.48;;;;;;;24.27;50.80;102223.47;5030340;28;20080;-33
2023/08/16 06:30:41;;;;;;;2.10;1.20;;;;;;;24.28;50.79;102222.50;5026837;28;20129;-33
2023/08/16 06:33:08;;;;;;;2.38;1.38;;;;;;;24.30;51.00;102222.31;5028895;28;20136;-34
2023/08/16 06:35:34;;;;;;;1.73;1.15;;;;;;;24.30;50.78;102217.75;5027071;28;20107;-34
2023/08/16 06:38:02;;;;;;;3.13;1.42;;;;;;;24.32;51.15;102226.56;5030178;28;20100;-34
2023/08/16 06:40:29;;;;;;;2.58;1.35;;;;;;;24.34;51.24;102223.69;5031835;28;20420;-34
2023/08/16 06:42:55;;;;;;;3.10;1.40;;;;;;;24.36;50.78;102222.53;5030250;28;20493;-34
2023/08/16 06:45:22;;;;;;;2.88;1.40;;;;;;;24.37;50.41;102223.38;5030336;28;20085;-34
2023/08/16 06:47:49;;;;;;;1.50;1.08;;;;;;;24.38;51.10;102219.66;5024799;28;20149;-34
2023/08/16 06:50:16;;;;;;;2.20;1.30;;;;;;;24.40;50.96;102224.91;5031181;28;20056;-34
2023/08/16 06:52:42;;;;;;;7.82;1.80;;;;;;;24.40;50.73;102228.47;5028904;28;20426;-34
2023/08/16 06:55:09;;;;;;;1.85;1.40;;;;;;;24.40;50.60;102228.47;5028511;28;20050;-34
2023/08/16 06:57:35;;;;;;;1.27;1.17;;;;;;;24.40;50.67;102236.59;5027477;28;20057;-34
2023/08/16 07:00:04;;;;;;;4.15;1.60;;;;;;;24.41;50.31;102235.63;5031736;28;20128;-33
2023/08/16 07:02:30;;;;;;;1.83;1.20;;;;;;;24.41;50.42;102235.63;5024354;28;20408;-34
2023/08/16 07:04:58;;;;;;;4.15;1.42;;;;;;;24.41;50.41;102238.34;5031485;28;20091;-34
2023/08/16 07:07:24;;;;;;;2.55;1.58;;;;;;;24.41;50.50;102243.75;5028863;28;20049;-34
2023/08/16 07:09:51;;;;;;;2.30;1.30;;;;;;;24.42;50.30;102239.16;5029516;28;20045;-34
2023/08/16 07:12:17;;;;;;;2.92;1.30;;;;;;;24.42;50.59;102247.31;5029993;28;20393;-34
2023/08/16 07:14:44;;;;;;;3.60;1.42;;;;;;;24.41;50.20;102246.47;5029581;28;20042;-33
2023/08/16 07:17:10;;;;;;;2.55;1.33;;;;;;;24.41;50.86;102242.91;5029136;28;20136;-34
2023/08/16 07:19:37;;;;;;;1.92;1.40;;;;;;;24.42;50.88;102247.31;5028982;28;20069;-33
2023/08/16 07:22:04;;;;;;;3.67;1.95;;;;;;;24.42;50.88;102247.31;5028660;28;20049;-34
2023/08/16 07:24:30;;;;;;;1.80;1.35;;;;;;;24.41;50.77;102241.03;5029123;28;20049;-34
2023/08/16 07:26:58;;;;;;;2.80;1.35;;;;;;;24.41;50.55;102249.16;5031653;28;20120;-33
2023/08/16 07:29:24;;;;;;;3.72;1.08;;;;;;;24.42;50.55;102247.31;5030865;28;20041;-34
2023/08/16 07:31:54;;;;;;;2.85;1.50;;;;;;;24.43;50.63;102254.41;5028443;28;20106;-34
2023/08/16 07:34:21;;;;;;;2.95;1.58;;;;;;;24.44;50.86;102250.69;5030892;28;20056;-33
2023/08/16 07:36:47;;;;;;;4.50;1.38;;;;;;;24.43;51.14;102241.72;5028964;28;20053;-34
2023/08/16 07:39:14;;;;;;;2.83;1.42;;;;;;;24.45;50.77;102237.00;5030259;28;20073;-34
2023/08/16 07:41:41;;;;;;;3.13;2.10;;;;;;;24.45;50.99;102239.69;5031296;28;20137;-34
2023/08/16 07:44:08;;;;;;;5.30;1.70;;;;;;;24.46;50.56;102244.09;5029636;28;20400;-34
2023/08/16 07:46:35;;;;;;;4.53;2.17;;;;;;;24.47;50.67;102244.94;5025900;28;20046;-33
2023/08/16 07:49:02;;;;;;;4.40;1.35;;;;;;;24.49;50.54;102248.34;5028697;28;20077;-33
2023/08/16 07:51:29;;;;;;;2.90;1.05;;;;;;;24.49;50.82;102249.22;5028947;28;20095;-33
2023/08/16 07:53:55;;;;;;;3.97;1.60;;;;;;;24.50;50.88;102245.47;5030214;28;20049;-33
2023/08/16 07:56:22;;;;;;;3.53;1.85;;;;;;;24.51;50.88;102249.88;5031997;28;20137;-33
2023/08/16 07:58:48;;;;;;;2.67;1.20;;;;;;;24.51;50.76;102247.16;5030100;28;20053;-33
2023/08/16 08:01:15;;;;;;;3.08;1.25;;;;;;;24.52;50.90;102250.72;5029746;28;20307;-33
2023/08/16 08:03:42;;;;;;;2.45;1.48;;;;;;;24.52;50.24;102248.88;5030424;28;20056;-33
2023/08/16 08:06:09;;;;;;;2.28;1.33;;;;;;;24.53;50.40;102249.72;5032676;28;20137;-33
2023/08/16 08:08:36;;;;;;;3.92;1.10;;;;;;;24.53;50.66;102249.72;5034108;28;20053;-33
2023/08/16 08:11:06;;;;;;;3.00;1.23;;;;;;;24.53;50.52;102256.00;5034518;28;20104;-33
2023/08/16 08:13:33;;;;;;;2.65;1.17;;;;;;;24.53;50.92;102256.00;5035248;28;20433;-33
2023/08/16 08:16:00;;;;;;;3.85;1.60;;;;;;;24.54;50.64;102256.84;5035293;28;20453;-33
2023/08/16 08:18:27;;;;;;;2.70;1.17;;;;;;;24.54;50.89;102257.69;5035185;28;20053;-33
2023/08/16 08:20:55;;;;;;;2.92;1.17;;;;;;;24.54;50.98;102263.13;5033962;28;20052;-33
2023/08/16 08:23:22;;;;;;;2.85;1.17;;;;;;;24.54;50.54;102257.69;5035638;28;20072;-33
2023/08/16 08:25:48;;;;;;;3.67;1.20;;;;;;;24.55;50.28;102261.25;5035094;28;20107;-33
2023/08/16 08:28:17;;;;;;;2.85;1.20;;;;;;;24.55;50.56;102264.81;5033975;28;20049;-33
2023/08/16 08:30:44;;;;;;;1.60;1.08;;;;;;;24.55;50.61;102267.50;5033727;28;20090;-33
2023/08/16 08:33:11;;;;;;;1.90;1.00;;;;;;;24.56;50.72;102269.25;5035225;28;20632;-33
2023/08/16 08:35:38;;;;;;;3.10;1.45;;;;;;;24.56;50.54;102266.53;5034107;28;20054;-33
2023/08/16 08:38:05;;;;;;;2.42;1.15;;;;;;;24.57;50.29;102264.66;5032935;28;20111;-33
2023/08/16 08:40:32;;;;;;;2.47;1.45;;;;;;;24.58;50.23;102269.06;5033896;28;20096;-33
2023/08/16 08:43:03;;;;;;;2.92;0.90;;;;;;;24.58;50.60;102259.06;5034564;28;20119;-33
2023/08/16 08:45:30;;;;;;;2.65;1.33;;;;;;;24.57;50.39;102268.22;5030746;28;20099;-33
2023/08/16 08:47:58;;;;;;;2.60;1.08;;;;;;;24.59;50.52;102270.75;5032026;28;20103;-33
2023/08/16 08:50:27;;;;;;;1.45;0.95;;;;;;;24.59;50.01;102262.63;5027024;28;20719;-33
2023/08/16 08:52:56;;;;;;;1.65;1.15;;;;;;;24.59;50.29;102271.59;5028450;28;20041;-33
2023/08/16 08:55:28;;;;;;;1.75;1.00;;;;;;;24.61;50.43;102275.00;5027581;28;20152;-33
2023/08/16 08:58:01;;;;;;;1.60;0.80;;;;;;;24.62;50.79;102271.28;5028341;28;20045;-33
2023/08/16 09:00:31;;;;;;;3.17;1.08;;;;;;;24.62;50.58;102276.72;5029025;28;20049;-33
2023/08/16 09:03:04;;;;;;;1.92;0.90;;;;;;;24.63;50.58;102277.56;5028790;28;20076;-33
2023/08/16 09:05:32;;;;;;;3.75;1.00;;;;;;;24.65;50.28;102271.97;5027986;28;20085;-33
2023/08/16 09:08:00;;;;;;;4.32;1.20;;;;;;;24.65;50.10;102272.84;5029329;28;20053;-33
2023/08/16 09:10:27;;;;;;;4.93;1.45;;;;;;;24.66;50.19;102274.53;4983578;28;20351;-36
2023/08/16 09:12:54;;;;;;;5.20;1.38;;;;;;;24.67;50.71;102283.50;5026679;28;20406;-34
2023/08/16 09:15:20;;;;;;;4.22;1.10;;;;;;;24.66;50.49;102271.81;5032945;28;20453;-34
2023/08/16 09:17:50;;;;;;;4.38;1.15;;;;;;;24.67;50.55;102281.63;5037186;28;20049;-34
2023/08/16 09:20:18;;;;;;;3.65;1.88;;;;;;;24.68;50.24;102279.78;5039864;28;20405;-34
2023/08/16 09:22:47;;;;;;;4.13;2.13;;;;;;;24.68;49.99;102283.31;5040586;28;20344;-34
2023/08/16 09:25:14;;;;;;;7.57;2.60;;;;;;;24.70;49.52;102284.03;5035872;28;20045;-34
2023/08/16 09:27:40;;;;;;;3.15;2.03;;;;;;;24.71;49.06;102280.28;5038796;28;20405;-34
2023/08/16 09:30:12;;;;;;;7.13;2.30;;;;;;;24.71;48.75;102279.44;4992336;28;20064;-34
2023/08/16 09:32:38;;;;;;;6.47;2.55;;;;;;;24.74;49.20;102287.28;5005962;28;20448;-34
2023/08/16 09:35:06;;;;;;;3.95;1.50;;;;;;;24.76;49.16;102285.22;5008532;28;20061;-34
2023/08/16 09:37:33;;;;;;;3.35;1.80;;;;;;;24.77;48.87;102278.81;5011448;28;20529;-34
2023/08/16 09:40:00;;;;;;;3.92;1.40;;;;;;;24.81;48.55;102277.47;5009981;28;20445;-34
2023/08/16 09:42:33;;;;;;;4.65;1.63;;;;;;;24.84;48.28;102277.13;5007810;28;20056;-34
2023/08/16 09:45:00;;;;;;;4.68;1.40;;;;;;;24.88;48.28;102273.06;5007229;28;20690;-34
2023/08/16 09:47:29;;;;;;;7.03;1.42;;;;;;;24.93;48.52;102272.59;5009971;28;20085;-34
2023/08/16 09:50:00;;;;;;;2.28;1.20;;;;;;;24.98;48.42;102275.66;4971716;28;20362;-34
2023/08/16 09:52:30;;;;;;;2.38;1.45;;;;;;;25.02;48.23;102271.59;5011212;28;20053;-34
2023/08/16 09:54:58;;;;;;;3.45;1.30;;;;;;;25.07;47.99;102269.22;5004760;28;20449;-34
2023/08/16 09:57:25;;;;;;;3.72;1.08;;;;;;;25.11;47.93;102260.63;5004663;28;20065;-34
2023/08/16 09:59:55;;;;;;;4.85;1.90;;;;;;;25.18;47.60;102262.69;5007972;28;20156;-34
2023/08/16 10:02:21;;;;;;;3.78;1.55;;;;;;;25.25;47.71;102269.16;5010044;28;20100;-34
2023/08/16 10:05:08;;;;;;;5.97;2.67;;;;;;;25.31;47.52;102271.19;5010641;28;20404;-34
2023/08/16 10:07:36;;;;;;;13.82;3.05;;;;;;;25.34;47.32;102271.69;5009987;28;20354;-34
2023/08/16 10:10:09;;;;;;;5.70;2.75;;;;;;;25.39;46.84;102263.03;5014261;28;20081;-34
2023/08/16 10:12:37;;;;;;;10.38;2.78;;;;;;;25.43;47.11;102267.13;4978188;28;20065;-34
2023/08/16 10:15:04;;;;;;;10.75;3.40;;;;;;;25.48;46.91;102258.47;5008863;28;20156;-34
2023/08/16 10:17:32;;;;;;;6.78;2.40;;;;;;;25.51;47.04;102256.25;5012649;28;20056;-34
2023/08/16 10:20:04;;;;;;;6.15;1.95;;;;;;;25.55;46.78;102263.06;5006824;28;20640;-34
2023/08/16 10:22:38;;;;;;;6.45;1.77;;;;;;;25.58;46.07;102256.44;5006757;28;20052;-34
2023/08/16 10:25:16;;;;;;;4.15;2.08;;;;;;;25.62;46.27;102263.22;5015795;28;20057;-34
2023/08/16 10:27:45;;;;;;;6.55;2.03;;;;;;;25.64;46.00;102265.75;5005197;28;20430;-34
2023/08/16 10:30:22;;;;;;;3.22;1.80;;;;;;;25.65;45.60;102260.19;4973000;28;20290;-35
2023/08/16 10:33:05;;;;;;;3.78;1.63;;;;;;;25.68;45.74;102267.13;5024270;28;20064;-35
2023/08/16 10:35:34;;;;;;;3.25;1.42;;;;;;;25.72;45.73;102263.03;5034213;28;20134;-34
2023/08/16 10:38:01;;;;;;;4.78;1.85;;;;;;;25.74;45.60;102267.31;5030719;28;20111;-35
2023/08/16 10:40:28;;;;;;;10.75;6.70;;;;;;;25.76;45.58;102257.09;5030033;28;20556;-35
2023/08/16 10:43:05;;;;;;;6.60;4.13;;;;;;;25.80;45.66;102260.34;5029620;28;20132;-35
2023/08/16 10:45:34;;;;;;;10.32;4.97;;;;;;;25.83;45.65;102260.88;5031465;28;20190;-34
2023/08/16 10:48:18;;;;;;;8.70;4.43;;;;;;;25.84;45.11;102262.56;5030733;28;20555;-35
2023/08/16 10:50:55;;;;;;;6.85;3.75;;;;;;;25.87;44.93;102258.66;5030102;28;20045;-35
2023/08/16 10:53:25;;;;;;;6.38;3.40;;;;;;;25.90;45.04;102258.31;5021611;28;20067;-35
2023/08/16 10:55:54;;;;;;;3.83;2.92;;;;;;;25.92;45.39;102264.41;5032423;28;20080;-35
2023/08/16 10:58:24;;;;;;;6.05;3.20;;;;;;;25.95;45.15;102255.94;5032013;28;20060;-35
2023/08/16 11:00:58;;;;;;;11.13;4.40;;;;;;;25.96;44.71;102256.78;5030110;28;20371;-35
2023/08/16 11:03:31;;;;;;;8.32;4.43;;;;;;;25.98;44.61;102258.31;5029995;28;20384;-35
2023/08/16 11:06:02;;;;;;;9.10;3.85;;;;;;;26.01;44.66;102257.97;5032781;28;20191;-35
2023/08/16 11:08:32;;;;;;;9.23;3.45;;;;;;;26.05;44.76;102253.00;5030000;28;20395;-35
2023/08/16 11:11:02;;;;;;;6.72;3.35;;;;;;;26.08;45.12;102260.81;4997933;28;20428;-35
2023/08/16 11:13:29;;;;;;;6.32;2.95;;;;;;;26.11;44.80;102260.50;5031066;28;20049;-35
2023/08/16 11:15:56;;;;;;;7.00;2.85;;;;;;;26.15;44.70;102263.72;5028410;28;20081;-35
2023/08/16 11:18:29;;;;;;;5.72;3.00;;;;;;;26.18;44.87;102263.38;5029410;28;20049;-35
2023/08/16 11:21:01;;;;;;;4.85;2.38;;;;;;;26.23;44.86;102261.81;5030790;28;20044;-35
2023/08/16 11:23:35;;;;;;;5.70;2.83;;;;;;;26.27;44.85;102263.16;5031364;28;20045;-35
2023/08/16 11:26:03;;;;;;;3.58;2.40;;;;;;;26.31;44.61;102258.22;5029751;28;20199;-35
2023/08/16 11:28:31;;;;;;;5.63;3.03;;;;;;;26.35;44.47;102259.56;5029020;28;20053;-35